createdAt,value
2019-02-08T00:00:39.189Z,1.10
2019-02-08T00:03:05.818Z,1.10
2019-02-08T00:05:32.056Z,1.20
2019-02-08T00:07:58.341Z,1.10
2019-02-08T00:10:24.515Z,1.10
2019-02-08T00:12:50.737Z,1.10
2019-02-08T00:15:21.688Z,1.20
2019-02-08T00:17:48.116Z,1.20
2019-02-08T00:20:18.499Z,1.20
2019-02-08T00:22:44.679Z,1.20
2019-02-08T00:25:19.201Z,1.20
2019-02-08T00:27:45.538Z,1.20
2019-02-08T00:30:21.716Z,1.10
2019-02-08T00:32:47.798Z,1.10
2019-02-08T00:35:14.112Z,1.10
2019-02-08T00:37:40.439Z,1.10
2019-02-08T00:40:10.141Z,1.10
2019-02-08T00:42:36.304Z,1.10
2019-02-08T00:45:05.625Z,1.10
2019-02-08T00:47:32.027Z,1.10
2019-02-08T00:49:58.313Z,1.10
2019-02-08T00:52:24.418Z,1.10
2019-02-08T00:54:50.534Z,1.10
2019-02-08T00:57:16.715Z,1.10
2019-02-08T00:59:42.810Z,1.10
2019-02-08T01:02:09.019Z,1.10
2019-02-08T01:04:35.214Z,1.10
2019-02-08T01:07:01.738Z,1.20
2019-02-08T01:09:28.309Z,1.20
2019-02-08T01:11:54.442Z,1.20
2019-02-08T01:14:20.601Z,1.30
2019-02-08T01:16:46.739Z,1.20
2019-02-08T01:19:13.053Z,1.20
2019-02-08T01:21:39.218Z,1.20
2019-02-08T01:24:05.575Z,1.20
2019-02-08T01:26:31.846Z,1.30
2019-02-08T01:28:57.936Z,1.30
2019-02-08T01:31:24.155Z,1.20
2019-02-08T01:33:50.256Z,1.20
2019-02-08T01:36:16.381Z,1.20
2019-02-08T01:38:42.513Z,1.20
2019-02-08T01:41:08.701Z,1.20
2019-02-08T01:43:34.793Z,1.10
2019-02-08T01:46:01.020Z,1.10
2019-02-08T01:48:27.122Z,1.10
2019-02-08T01:50:53.214Z,1.10
2019-02-08T01:53:19.364Z,1.10
2019-02-08T01:55:45.535Z,1.00
2019-02-08T01:58:11.700Z,1.00
2019-02-08T02:00:41.378Z,1.00
2019-02-08T02:03:09.163Z,1.00
2019-02-08T02:05:35.662Z,1.00
2019-02-08T02:08:01.977Z,1.00
2019-02-08T02:10:30.449Z,1.00
2019-02-08T02:12:56.527Z,1.00
2019-02-08T02:15:23.026Z,1.00
2019-02-08T02:17:49.506Z,1.00
2019-02-08T02:20:22.442Z,1.00
2019-02-08T02:22:48.516Z,0.90
2019-02-08T02:25:14.908Z,1.00
2019-02-08T02:27:41.118Z,1.00
2019-02-08T02:30:14.190Z,1.00
2019-02-08T02:32:40.280Z,1.00
2019-02-08T02:35:09.901Z,0.90
2019-02-08T02:37:36.186Z,1.00
2019-02-08T02:40:06.141Z,1.10
2019-02-08T02:42:32.365Z,1.10
2019-02-08T02:44:58.495Z,1.10
2019-02-08T02:47:24.821Z,1.10
2019-02-08T02:49:50.891Z,1.20
2019-02-08T02:52:17.010Z,1.20
2019-02-08T02:54:43.124Z,1.20
2019-02-08T02:57:09.218Z,1.20
2019-02-08T02:59:35.288Z,1.30
2019-02-08T03:02:01.484Z,1.30
2019-02-08T03:04:27.662Z,1.30
2019-02-08T03:06:53.797Z,1.20
2019-02-08T03:09:20.006Z,1.10
2019-02-08T03:11:46.170Z,1.20
2019-02-08T03:14:12.455Z,1.10
2019-02-08T03:16:38.823Z,1.10
2019-02-08T03:19:05.230Z,1.10
2019-02-08T03:21:31.328Z,1.10
2019-02-08T03:23:57.426Z,1.10
2019-02-08T03:26:23.784Z,1.00
2019-02-08T03:28:49.971Z,1.00
2019-02-08T03:31:16.260Z,1.00
2019-02-08T03:33:42.467Z,1.00
2019-02-08T03:36:08.555Z,1.00
2019-02-08T03:38:34.745Z,1.00
2019-02-08T03:41:00.825Z,1.00
2019-02-08T03:43:27.259Z,0.90
2019-02-08T03:45:53.505Z,1.00
2019-02-08T03:48:19.729Z,1.00
2019-02-08T03:50:45.838Z,1.00
2019-02-08T03:53:12.363Z,1.00
2019-02-08T03:55:38.557Z,1.00
2019-02-08T03:58:06.291Z,1.00
2019-02-08T04:00:41.539Z,1.00
2019-02-08T04:03:08.004Z,1.10
2019-02-08T04:05:34.419Z,1.10
2019-02-08T04:08:00.626Z,1.10
2019-02-08T04:10:27.021Z,1.10
2019-02-08T04:12:53.305Z,1.10
2019-02-08T04:15:21.693Z,1.20
2019-02-08T04:17:48.013Z,1.30
2019-02-08T04:20:16.366Z,1.20
2019-02-08T04:22:42.795Z,1.20
2019-02-08T04:25:12.940Z,1.30
2019-02-08T04:27:39.318Z,1.30
2019-02-08T04:30:11.795Z,1.30
2019-02-08T04:32:37.869Z,1.30
2019-02-08T04:35:04.615Z,1.20
2019-02-08T04:37:30.848Z,1.20
2019-02-08T04:39:57.059Z,1.20
2019-02-08T04:42:23.213Z,1.30
2019-02-08T04:44:49.304Z,1.40
2019-02-08T04:47:15.465Z,1.40
2019-02-08T04:49:41.633Z,1.50
2019-02-08T04:52:07.775Z,1.40
2019-02-08T04:54:38.336Z,1.40
2019-02-08T04:57:05.076Z,1.40
2019-02-08T04:59:31.300Z,1.40
2019-02-08T05:01:57.512Z,1.40
2019-02-08T05:04:23.642Z,1.40
2019-02-08T05:06:49.872Z,1.40
2019-02-08T05:09:15.944Z,1.50
2019-02-08T05:11:42.102Z,1.50
2019-02-08T05:14:08.616Z,1.50
2019-02-08T05:16:34.712Z,1.50
2019-02-08T05:19:00.902Z,1.50
2019-02-08T05:21:27.058Z,1.50
2019-02-08T05:23:53.216Z,1.50
2019-02-08T05:26:19.323Z,1.60
2019-02-08T05:28:45.477Z,1.60
2019-02-08T05:31:11.684Z,1.50
2019-02-08T05:33:37.926Z,1.60
2019-02-08T05:36:04.087Z,1.60
2019-02-08T05:38:30.225Z,1.60
2019-02-08T05:40:56.306Z,1.60
2019-02-08T05:43:22.509Z,1.60
2019-02-08T05:45:48.658Z,1.60
2019-02-08T05:48:14.876Z,1.60
2019-02-08T05:50:41.004Z,1.60
2019-02-08T05:53:07.161Z,1.60
2019-02-08T05:55:33.634Z,1.50
2019-02-08T05:58:00.083Z,1.60
2019-02-08T06:00:39.740Z,1.60
2019-02-08T06:03:06.239Z,1.60
2019-02-08T06:05:32.921Z,1.60
2019-02-08T06:07:59.093Z,1.70
2019-02-08T06:10:25.222Z,1.70
2019-02-08T06:12:51.360Z,1.80
2019-02-08T06:15:22.268Z,1.70
2019-02-08T06:17:48.366Z,1.70
2019-02-08T06:20:17.338Z,1.70
2019-02-08T06:22:43.540Z,1.70
2019-02-08T06:25:11.943Z,1.70
2019-02-08T06:27:38.902Z,1.70
2019-02-08T06:30:08.924Z,1.70
2019-02-08T06:32:35.146Z,1.70
2019-02-08T06:35:01.259Z,1.60
2019-02-08T06:37:27.452Z,1.70
2019-02-08T06:39:53.570Z,1.70
2019-02-08T06:42:19.676Z,1.70
2019-02-08T06:44:45.756Z,1.70
2019-02-08T06:47:11.894Z,1.70
2019-02-08T06:49:38.076Z,1.80
2019-02-08T06:52:04.398Z,1.80
2019-02-08T06:54:30.500Z,1.80
2019-02-08T06:57:01.259Z,1.80
2019-02-08T06:59:29.276Z,1.80
2019-02-08T07:02:13.997Z,1.80
2019-02-08T07:04:47.995Z,1.80
2019-02-08T07:07:22.328Z,1.90
2019-02-08T07:10:02.482Z,1.90
2019-02-08T07:12:48.788Z,1.90
2019-02-08T07:15:22.871Z,1.90
2019-02-08T07:18:05.922Z,1.90
2019-02-08T07:20:51.097Z,1.90
2019-02-08T07:23:21.911Z,1.90
2019-02-08T07:25:55.716Z,1.90
2019-02-08T07:28:32.953Z,1.90
2019-02-08T07:31:00.993Z,2.00
2019-02-08T07:33:29.077Z,2.10
2019-02-08T07:35:59.946Z,2.10
2019-02-08T07:38:37.447Z,2.00
2019-02-08T07:41:06.453Z,2.00
2019-02-08T07:43:37.957Z,2.10
2019-02-08T07:46:13.199Z,2.10
2019-02-08T07:48:47.651Z,2.10
2019-02-08T07:51:15.857Z,2.20
2019-02-08T07:53:46.651Z,2.20
2019-02-08T07:56:18.129Z,2.20
2019-02-08T07:58:49.765Z,2.20
2019-02-08T08:01:18.407Z,2.30
2019-02-08T08:03:49.748Z,2.30
2019-02-08T08:06:21.545Z,2.30
2019-02-08T08:08:58.701Z,2.60
2019-02-08T08:11:35.747Z,2.80
2019-02-08T08:14:23.081Z,2.70
2019-02-08T08:16:57.556Z,2.70
2019-02-08T08:19:26.109Z,2.70
2019-02-08T08:22:12.713Z,2.70
2019-02-08T08:24:59.498Z,2.70
2019-02-08T08:27:34.084Z,2.80
2019-02-08T08:30:14.737Z,2.80
2019-02-08T08:32:44.763Z,2.80
2019-02-08T08:35:23.629Z,2.90
2019-02-08T08:38:22.985Z,2.80
2019-02-08T08:41:09.596Z,2.90
2019-02-08T08:43:45.900Z,3.00
2019-02-08T08:46:18.694Z,3.20
2019-02-08T08:49:03.961Z,3.50
2019-02-08T08:51:39.211Z,3.60
2019-02-08T08:54:42.940Z,3.70
2019-02-08T08:57:21.578Z,3.90
2019-02-08T09:00:17.253Z,4.00
2019-02-08T09:02:52.980Z,4.20
2019-02-08T09:05:31.601Z,4.50
2019-02-08T09:08:21.531Z,4.40
2019-02-08T09:11:06.361Z,4.40
2019-02-08T09:13:51.222Z,4.40
2019-02-08T09:16:37.859Z,4.50
2019-02-08T09:19:24.803Z,4.50
2019-02-08T09:22:03.252Z,4.40
2019-02-08T09:24:51.777Z,4.60
2019-02-08T09:27:41.279Z,4.70
2019-02-08T09:30:29.926Z,5.00
2019-02-08T09:33:19.217Z,5.00
2019-02-08T09:36:01.416Z,5.00
2019-02-08T09:38:51.303Z,5.20
2019-02-08T09:41:39.695Z,5.20
2019-02-08T09:44:12.494Z,5.20
2019-02-08T09:46:51.566Z,5.40
2019-02-08T09:49:50.212Z,5.60
2019-02-08T09:52:52.307Z,5.80
2019-02-08T09:55:38.718Z,5.80
2019-02-08T09:58:28.491Z,5.70
2019-02-08T10:01:24.310Z,5.70
2019-02-08T10:04:15.614Z,5.90
2019-02-08T10:07:05.898Z,6.50
2019-02-08T10:10:01.881Z,6.90
2019-02-08T10:12:51.698Z,7.10
2019-02-08T10:15:27.395Z,7.40
2019-02-08T10:18:09.238Z,7.30
2019-02-08T10:21:12.901Z,7.60
2019-02-08T10:24:18.002Z,7.80
2019-02-08T10:26:57.042Z,7.90
2019-02-08T10:29:46.902Z,8.00
2019-02-08T10:32:40.765Z,8.10
2019-02-08T10:35:16.484Z,7.80
2019-02-08T10:38:19.930Z,8.00
2019-02-08T10:41:07.644Z,8.50
2019-02-08T10:43:40.574Z,8.50
2019-02-08T10:46:39.298Z,8.10
2019-02-08T10:49:25.980Z,8.40
2019-02-08T10:52:15.757Z,8.80
2019-02-08T10:55:05.284Z,9.10
2019-02-08T10:58:08.828Z,9.00
2019-02-08T11:00:48.148Z,9.00
2019-02-08T11:03:39.126Z,8.40
2019-02-08T11:06:17.732Z,8.60
2019-02-08T11:09:10.582Z,9.20
2019-02-08T11:12:12.592Z,8.60
2019-02-08T11:15:00.952Z,8.50
2019-02-08T11:17:33.736Z,9.00
2019-02-08T11:19:59.836Z,8.90
2019-02-08T11:22:26.118Z,8.90
2019-02-08T11:24:52.364Z,9.00
2019-02-08T11:27:18.555Z,9.00
2019-02-08T11:29:44.716Z,9.20
2019-02-08T11:32:11.016Z,9.40
2019-02-08T11:34:37.104Z,9.50
2019-02-08T11:37:03.516Z,9.70
2019-02-08T11:39:29.642Z,9.40
2019-02-08T11:41:55.739Z,9.50
2019-02-08T11:44:22.254Z,9.70
2019-02-08T11:46:48.561Z,9.90
2019-02-08T11:49:14.830Z,9.10
2019-02-08T11:51:41.269Z,9.20
2019-02-08T11:54:07.449Z,9.40
2019-02-08T11:56:33.742Z,9.20
2019-02-08T11:59:00.109Z,9.20
2019-02-08T12:01:28.310Z,9.50
2019-02-08T12:03:54.548Z,9.90
2019-02-08T12:06:20.770Z,9.60
2019-02-08T12:08:46.849Z,9.90
2019-02-08T12:11:12.948Z,10.00
2019-02-08T12:13:39.040Z,10.10
2019-02-08T12:16:05.403Z,10.10
2019-02-08T12:18:31.555Z,10.60
2019-02-08T12:20:57.677Z,10.30
2019-02-08T12:23:23.859Z,10.00
2019-02-08T12:25:50.103Z,10.10
2019-02-08T12:28:16.334Z,10.00
2019-02-08T12:30:43.906Z,10.20
2019-02-08T12:33:10.353Z,10.30
2019-02-08T12:35:36.991Z,10.30
2019-02-08T12:38:03.516Z,10.10
2019-02-08T12:40:29.749Z,10.10
2019-02-08T12:42:55.836Z,10.50
2019-02-08T12:45:22.271Z,10.20
2019-02-08T12:47:48.479Z,10.70
2019-02-08T12:50:16.710Z,10.90
2019-02-08T12:52:42.928Z,10.50
2019-02-08T12:55:11.967Z,10.30
2019-02-08T12:57:38.170Z,10.00
2019-02-08T13:00:14.650Z,10.50
2019-02-08T13:02:41.047Z,10.70
2019-02-08T13:05:09.475Z,10.90
2019-02-08T13:07:35.671Z,11.20
2019-02-08T13:10:05.519Z,11.60
2019-02-08T13:12:31.743Z,11.50
2019-02-08T13:14:57.899Z,11.30
2019-02-08T13:17:24.020Z,10.50
2019-02-08T13:19:50.305Z,9.90
2019-02-08T13:22:16.433Z,10.00
2019-02-08T13:24:42.635Z,10.20
2019-02-08T13:27:08.871Z,10.50
2019-02-08T13:29:35.055Z,10.60
2019-02-08T13:32:01.149Z,10.40
2019-02-08T13:34:27.245Z,10.30
2019-02-08T13:36:53.369Z,10.10
2019-02-08T13:39:19.435Z,10.10
2019-02-08T13:41:45.529Z,9.70
2019-02-08T13:44:11.847Z,9.80
2019-02-08T13:46:38.078Z,10.20
2019-02-08T13:49:04.516Z,10.10
2019-02-08T13:51:30.705Z,10.30
2019-02-08T13:53:56.905Z,10.30
2019-02-08T13:56:23.143Z,10.20
2019-02-08T13:58:49.361Z,10.10
2019-02-08T14:01:15.480Z,10.00
2019-02-08T14:03:41.630Z,9.90
2019-02-08T14:06:08.125Z,10.10
2019-02-08T14:08:34.221Z,10.30
2019-02-08T14:11:00.457Z,10.60
2019-02-08T14:13:26.662Z,10.90
2019-02-08T14:15:52.888Z,11.00
2019-02-08T14:18:19.128Z,11.50
2019-02-08T14:20:45.290Z,11.60
2019-02-08T14:23:11.428Z,11.60
2019-02-08T14:25:37.623Z,11.60
2019-02-08T14:28:03.947Z,11.70
2019-02-08T14:30:36.157Z,11.70
2019-02-08T14:33:02.656Z,11.50
2019-02-08T14:35:29.006Z,11.30
2019-02-08T14:37:57.725Z,11.50
2019-02-08T14:40:26.820Z,11.40
2019-02-08T14:42:53.187Z,11.40
2019-02-08T14:45:19.427Z,10.90
2019-02-08T14:47:45.500Z,10.70
2019-02-08T14:50:26.785Z,10.40
2019-02-08T14:52:53.355Z,10.30
2019-02-08T14:55:19.966Z,9.70
2019-02-08T14:57:46.868Z,9.70
2019-02-08T15:00:15.873Z,9.80
2019-02-08T15:02:42.108Z,9.80
2019-02-08T15:05:10.899Z,9.60
2019-02-08T15:07:37.136Z,9.30
2019-02-08T15:10:07.144Z,9.10
2019-02-08T15:12:33.298Z,9.00
2019-02-08T15:14:59.494Z,8.80
2019-02-08T15:17:25.586Z,8.60
2019-02-08T15:19:51.695Z,8.60
2019-02-08T15:22:17.987Z,8.60
2019-02-08T15:24:44.086Z,8.50
2019-02-08T15:27:10.222Z,8.40
2019-02-08T15:29:36.592Z,8.30
2019-02-08T15:32:02.882Z,8.30
2019-02-08T15:34:29.071Z,8.20
2019-02-08T15:36:55.383Z,8.10
2019-02-08T15:39:21.632Z,8.10
2019-02-08T15:41:47.910Z,7.90
2019-02-08T15:44:14.039Z,7.80
2019-02-08T15:46:40.254Z,7.70
2019-02-08T15:49:06.462Z,7.70
2019-02-08T15:51:33.017Z,7.60
2019-02-08T15:53:59.146Z,7.50
2019-02-08T15:56:25.441Z,7.50
2019-02-08T15:58:51.520Z,7.40
2019-02-08T16:01:18.026Z,7.30
2019-02-08T16:03:44.236Z,7.30
2019-02-08T16:06:10.584Z,7.20
2019-02-08T16:08:36.719Z,7.10
2019-02-08T16:11:03.684Z,7.10
2019-02-08T16:13:29.762Z,7.00
2019-02-08T16:15:56.062Z,6.80
2019-02-08T16:18:22.271Z,6.80
2019-02-08T16:20:48.559Z,6.70
2019-02-08T16:23:14.783Z,6.80
2019-02-08T16:25:40.999Z,6.70
2019-02-08T16:28:07.089Z,6.70
2019-02-08T16:30:35.126Z,6.70
2019-02-08T16:33:01.554Z,6.60
2019-02-08T16:35:28.492Z,6.60
2019-02-08T16:37:54.980Z,6.60
2019-02-08T16:40:23.206Z,6.50
2019-02-08T16:42:49.825Z,6.50
2019-02-08T16:45:18.666Z,6.40
2019-02-08T16:47:44.973Z,6.30
2019-02-08T16:50:15.010Z,6.20
2019-02-08T16:52:41.329Z,6.20
2019-02-08T16:55:10.217Z,6.10
2019-02-08T16:57:36.741Z,6.10
2019-02-08T17:00:15.600Z,6.00
2019-02-08T17:02:42.037Z,5.90
2019-02-08T17:05:11.824Z,5.80
2019-02-08T17:07:37.970Z,5.80
2019-02-08T17:10:08.025Z,5.70
2019-02-08T17:12:34.099Z,5.50
2019-02-08T17:15:03.453Z,5.50
2019-02-08T17:17:29.687Z,5.40
2019-02-08T17:19:55.799Z,5.30
2019-02-08T17:22:21.939Z,5.20
2019-02-08T17:24:48.229Z,5.10
2019-02-08T17:27:14.390Z,5.00
2019-02-08T17:29:40.764Z,4.80
2019-02-08T17:32:06.982Z,4.80
2019-02-08T17:34:33.321Z,4.80
2019-02-08T17:36:59.668Z,4.80
2019-02-08T17:39:25.901Z,4.70
2019-02-08T17:41:52.143Z,4.70
2019-02-08T17:44:18.305Z,4.70
2019-02-08T17:46:44.410Z,4.70
2019-02-08T17:49:11.076Z,4.70
2019-02-08T17:51:37.310Z,4.70
2019-02-08T17:54:03.740Z,4.90
2019-02-08T17:56:29.839Z,4.90
2019-02-08T17:58:56.236Z,4.80
2019-02-08T18:01:22.456Z,4.70
2019-02-08T18:03:48.636Z,4.80
2019-02-08T18:06:14.785Z,4.70
2019-02-08T18:08:40.865Z,4.80
2019-02-08T18:11:07.080Z,4.80
2019-02-08T18:13:33.325Z,4.90
2019-02-08T18:15:59.499Z,4.80
2019-02-08T18:18:25.670Z,4.80
2019-02-08T18:20:54.795Z,4.80
2019-02-08T18:23:20.979Z,4.90
2019-02-08T18:25:47.284Z,4.90
2019-02-08T18:28:13.376Z,4.80
2019-02-08T18:30:39.515Z,4.80
2019-02-08T18:33:06.159Z,4.80
2019-02-08T18:35:32.534Z,4.80
2019-02-08T18:37:58.874Z,4.60
2019-02-08T18:40:26.097Z,4.60
2019-02-08T18:42:52.687Z,4.50
2019-02-08T18:45:24.768Z,4.40
2019-02-08T18:47:51.208Z,4.40
2019-02-08T18:50:38.368Z,4.50
2019-02-08T18:53:05.289Z,4.50
2019-02-08T18:55:31.582Z,4.50
2019-02-08T18:57:57.722Z,4.60
2019-02-08T19:00:39.512Z,4.70
2019-02-08T19:03:00.509Z,4.70
2019-02-08T19:05:26.678Z,4.70
2019-02-08T19:07:53.041Z,4.60
2019-02-08T19:10:21.473Z,4.50
2019-02-08T19:12:47.787Z,4.50
2019-02-08T19:15:19.062Z,4.60
2019-02-08T19:17:45.381Z,4.50
2019-02-08T19:20:14.230Z,4.40
2019-02-08T19:22:40.698Z,4.40
2019-02-08T19:25:12.617Z,4.40
2019-02-08T19:27:38.834Z,4.50
2019-02-08T19:30:14.711Z,4.60
2019-02-08T19:32:40.956Z,4.40
2019-02-08T19:35:09.238Z,4.50
2019-02-08T19:37:35.381Z,4.40
2019-02-08T19:40:04.017Z,4.40
2019-02-08T19:42:30.481Z,4.50
2019-02-08T19:44:57.116Z,4.50
2019-02-08T19:47:23.550Z,4.40
2019-02-08T19:49:49.981Z,4.40
2019-02-08T19:52:16.290Z,4.30
2019-02-08T19:54:43.583Z,4.20
2019-02-08T19:57:09.915Z,4.20
2019-02-08T19:59:36.079Z,4.10
2019-02-08T20:02:02.816Z,4.10
2019-02-08T20:04:29.078Z,4.10
2019-02-08T20:06:55.366Z,4.00
2019-02-08T20:09:21.560Z,4.00
2019-02-08T20:11:47.907Z,4.00
2019-02-08T20:14:14.170Z,4.00
2019-02-08T20:16:40.383Z,4.00
2019-02-08T20:19:06.624Z,4.00
2019-02-08T20:21:32.828Z,4.00
2019-02-08T20:23:59.026Z,4.00
2019-02-08T20:26:25.114Z,4.00
2019-02-08T20:28:51.308Z,4.00
2019-02-08T20:31:17.527Z,4.00
2019-02-08T20:33:43.750Z,3.90
2019-02-08T20:36:09.888Z,3.80
2019-02-08T20:38:36.100Z,3.80
2019-02-08T20:41:02.597Z,3.80
2019-02-08T20:43:29.254Z,3.90
2019-02-08T20:45:55.519Z,3.90
2019-02-08T20:48:22.102Z,3.90
2019-02-08T20:50:48.430Z,3.90
2019-02-08T20:53:15.352Z,3.90
2019-02-08T20:55:41.635Z,3.90
2019-02-08T20:58:10.295Z,4.00
2019-02-08T21:00:39.270Z,4.10
2019-02-08T21:03:08.297Z,3.90
2019-02-08T21:05:35.090Z,4.10
2019-02-08T21:08:01.498Z,4.00
2019-02-08T21:10:29.024Z,3.90
2019-02-08T21:12:55.463Z,3.80
2019-02-08T21:15:22.561Z,3.80
2019-02-08T21:17:48.985Z,3.80
2019-02-08T21:20:16.599Z,3.70
2019-02-08T21:22:42.930Z,3.80
2019-02-08T21:25:23.637Z,3.80
2019-02-08T21:27:49.825Z,3.60
2019-02-08T21:30:16.607Z,3.70
2019-02-08T21:32:43.256Z,3.70
2019-02-08T21:35:10.337Z,3.70
2019-02-08T21:37:37.015Z,3.70
2019-02-08T21:40:09.614Z,3.70
2019-02-08T21:42:36.015Z,3.60
2019-02-08T21:45:06.082Z,3.70
2019-02-08T21:47:32.377Z,3.70
2019-02-08T21:49:58.905Z,3.70
2019-02-08T21:52:25.146Z,3.70
2019-02-08T21:54:51.357Z,3.70
2019-02-08T21:57:17.555Z,3.70
2019-02-08T21:59:43.649Z,3.70
2019-02-08T22:02:09.992Z,3.70
2019-02-08T22:04:36.239Z,3.80
2019-02-08T22:07:02.715Z,3.70
2019-02-08T22:09:28.859Z,3.80
2019-02-08T22:11:55.037Z,3.80
2019-02-08T22:14:21.286Z,3.80
2019-02-08T22:16:47.699Z,3.80
2019-02-08T22:19:13.823Z,3.80
2019-02-08T22:21:40.053Z,3.80
2019-02-08T22:24:06.409Z,3.80
2019-02-08T22:26:32.655Z,3.80
2019-02-08T22:28:58.840Z,3.80
2019-02-08T22:31:24.922Z,3.80
2019-02-08T22:33:51.169Z,3.80
2019-02-08T22:36:17.342Z,3.80
2019-02-08T22:38:43.452Z,3.80
2019-02-08T22:41:09.637Z,3.70
2019-02-08T22:43:35.795Z,3.70
2019-02-08T22:46:02.085Z,3.70
2019-02-08T22:48:28.716Z,3.70
2019-02-08T22:50:54.891Z,3.70
2019-02-08T22:53:21.109Z,3.70
2019-02-08T22:55:47.322Z,3.60
2019-02-08T22:58:13.394Z,3.60
2019-02-08T23:00:49.633Z,3.70
2019-02-08T23:03:15.732Z,3.50
2019-02-08T23:05:45.601Z,3.50
2019-02-08T23:08:10.438Z,3.50
2019-02-08T23:10:36.974Z,3.50
2019-02-08T23:13:08.295Z,3.40
2019-02-08T23:15:34.928Z,3.40
2019-02-08T23:18:01.060Z,3.40
2019-02-08T23:20:27.257Z,3.30
2019-02-08T23:22:53.370Z,3.10
2019-02-08T23:25:19.549Z,3.20
2019-02-08T23:27:45.735Z,3.30
2019-02-08T23:30:20.212Z,3.30
2019-02-08T23:32:46.478Z,3.30
2019-02-08T23:35:13.723Z,3.30
2019-02-08T23:37:39.963Z,3.30
2019-02-08T23:40:07.436Z,3.30
2019-02-08T23:42:33.765Z,3.30
2019-02-08T23:44:59.973Z,3.40
2019-02-08T23:47:26.220Z,3.40
2019-02-08T23:49:52.347Z,3.40
2019-02-08T23:52:18.436Z,3.40
2019-02-08T23:54:44.535Z,3.40
2019-02-08T23:57:10.668Z,3.50
2019-02-08T23:59:38.148Z,3.40
